Time;durP1;ratioP1;P1;durP2;ratioP2;P2;SDS_P1;SDS_P2;PMS_P1;PMS_P2;Temp;Humidity;BMP_temperature;BMP_pressure;BME280_temperature;BME280_humidity;BME280_pressure;Samples;Min_cycle;Max_cycle;Signal;HPM_P1;HPM_P2
2021/01/08 00:00:30;;;;;;;22.70;11.40;;;22.30;36.20;;;;;;6098464;28;83527;-65
2021/01/08 00:03:33;;;;;;;21.88;11.02;;;22.20;35.70;;;;;;6094357;28;83385;-64
2021/01/08 00:06:43;;;;;;;21.00;10.68;;;22.20;35.70;;;;;;6101105;28;83618;-64
2021/01/08 00:09:43;;;;;;;19.20;10.35;;;22.20;35.80;;;;;;6085210;28;83553;-64
2021/01/08 00:12:44;;;;;;;23.40;10.98;;;22.20;35.80;;;;;;6094835;28;83834;-64
2021/01/08 00:15:44;;;;;;;21.42;10.52;;;22.20;35.70;;;;;;6101184;28;86271;-66
2021/01/08 00:18:45;;;;;;;20.75;11.13;;;22.20;35.80;;;;;;6116234;28;83264;-67
2021/01/08 00:21:45;;;;;;;22.17;10.95;;;22.20;35.80;;;;;;6095153;28;85466;-66
2021/01/08 00:24:45;;;;;;;21.75;10.18;;;22.20;35.90;;;;;;6094847;28;83373;-65
2021/01/08 00:27:46;;;;;;;22.33;10.32;;;22.20;35.90;;;;;;6090809;28;84061;-66
2021/01/08 00:30:46;;;;;;;25.25;11.23;;;22.20;36.00;;;;;;6100953;28;83756;-65
2021/01/08 00:33:47;;;;;;;18.20;10.38;;;22.20;35.80;;;;;;6099664;28;83000;-66
2021/01/08 00:36:48;;;;;;;17.73;9.65;;;22.20;35.90;;;;;;6100776;28;83187;-66
2021/01/08 00:39:49;;;;;;;21.70;10.35;;;22.20;35.80;;;;;;6100027;28;83185;-66
2021/01/08 00:42:49;;;;;;;20.60;10.93;;;22.10;35.90;;;;;;6100113;28;83430;-66
2021/01/08 00:45:50;;;;;;;16.65;9.73;;;22.20;36.00;;;;;;6101705;28;83272;-66
2021/01/08 00:48:54;;;;;;;18.65;9.52;;;22.10;36.10;;;;;;6092992;28;84898;-66
2021/01/08 00:51:55;;;;;;;16.88;9.05;;;22.10;35.70;;;;;;6093910;28;83093;-65
2021/01/08 00:54:57;;;;;;;17.20;9.38;;;22.10;36.70;;;;;;6110965;28;82202;-66
2021/01/08 00:58:26;;;;;;;20.80;10.63;;;22.10;35.80;;;;;;6097094;28;81210;-66
2021/01/08 01:01:33;;;;;;;19.95;10.25;;;22.10;35.50;;;;;;6098675;28;83701;-65
2021/01/08 01:04:33;;;;;;;18.75;9.82;;;22.10;35.30;;;;;;6096431;28;83189;-63
2021/01/08 01:07:34;;;;;;;17.90;10.05;;;22.10;35.40;;;;;;6100578;28;83013;-63
2021/01/08 01:10:34;;;;;;;17.95;8.63;;;22.10;35.50;;;;;;6098767;28;83054;-66
2021/01/08 01:13:35;;;;;;;23.60;10.30;;;22.10;35.30;;;;;;6094715;28;83744;-63
2021/01/08 01:16:35;;;;;;;19.35;9.52;;;22.10;35.10;;;;;;6096903;28;85156;-64
2021/01/08 01:19:36;;;;;;;20.88;9.73;;;22.10;35.20;;;;;;6100006;28;82964;-64
2021/01/08 01:22:36;;;;;;;19.05;10.13;;;22.10;35.10;;;;;;6103603;28;82443;-64
2021/01/08 01:25:37;;;;;;;18.83;9.70;;;22.10;34.90;;;;;;6099350;28;82965;-64
2021/01/08 01:28:37;;;;;;;17.58;9.48;;;22.10;35.00;;;;;;6100698;28;81835;-65
2021/01/08 01:31:38;;;;;;;17.40;9.25;;;22.10;35.20;;;;;;6101080;28;84567;-65
2021/01/08 01:34:38;;;;;;;19.45;9.50;;;22.10;34.80;;;;;;6100950;28;80780;-64
2021/01/08 01:37:39;;;;;;;18.88;9.63;;;22.10;35.00;;;;;;6113426;28;81583;-64
2021/01/08 01:40:39;;;;;;;17.30;8.73;;;22.00;34.90;;;;;;6103676;28;80782;-64
2021/01/08 01:43:40;;;;;;;16.55;8.98;;;22.00;34.80;;;;;;6103796;28;80429;-66
2021/01/08 01:46:40;;;;;;;17.10;9.13;;;22.00;34.90;;;;;;6101732;28;81143;-65
2021/01/08 01:49:43;;;;;;;19.35;8.95;;;22.00;34.70;;;;;;6101550;28;81640;-64
2021/01/08 01:52:47;;;;;;;17.15;8.60;;;22.00;34.60;;;;;;6091677;28;82587;-65
2021/01/08 01:55:47;;;;;;;15.30;8.73;;;22.00;34.50;;;;;;6101913;28;80623;-65
2021/01/08 01:58:48;;;;;;;21.40;10.05;;;22.00;34.50;;;;;;6098640;28;80351;-65
2021/01/08 02:01:51;;;;;;;18.27;9.27;;;22.00;34.30;;;;;;6099277;28;82756;-65
2021/01/08 02:05:02;;;;;;;17.42;8.98;;;22.00;34.40;;;;;;6091852;28;84498;-65
2021/01/08 02:08:03;;;;;;;17.42;8.45;;;22.00;34.20;;;;;;6102992;28;82322;-65
2021/01/08 02:11:03;;;;;;;15.52;7.93;;;22.00;34.30;;;;;;6102379;28;80466;-65
2021/01/08 02:14:04;;;;;;;14.77;8.13;;;22.00;34.00;;;;;;6101435;28;81479;-65
2021/01/08 02:17:04;;;;;;;16.23;8.68;;;22.00;33.60;;;;;;6094480;28;80201;-66
2021/01/08 02:20:05;;;;;;;14.98;8.02;;;22.00;34.00;;;;;;6103719;28;80962;-64
2021/01/08 02:23:05;;;;;;;15.65;7.82;;;22.00;34.00;;;;;;6103640;28;81138;-65
2021/01/08 02:26:06;;;;;;;15.20;7.78;;;22.00;33.80;;;;;;6101875;28;80928;-64
2021/01/08 02:29:06;;;;;;;15.95;7.03;;;22.00;33.90;;;;;;6091443;28;80606;-64
2021/01/08 02:32:07;;;;;;;15.95;8.48;;;22.00;33.50;;;;;;6101138;28;80929;-65
2021/01/08 02:35:07;;;;;;;13.13;8.02;;;22.00;33.70;;;;;;6098776;28;83585;-64
2021/01/08 02:38:08;;;;;;;12.90;6.93;;;22.00;33.60;;;;;;6100559;28;81578;-64
2021/01/08 02:41:09;;;;;;;14.73;7.20;;;22.00;33.30;;;;;;6095523;28;81106;-65
2021/01/08 02:44:09;;;;;;;14.85;8.00;;;22.00;33.40;;;;;;6097605;28;80931;-65
2021/01/08 02:47:10;;;;;;;15.85;8.05;;;22.00;33.30;;;;;;6088486;28;83152;-65
2021/01/08 02:50:14;;;;;;;13.63;6.88;;;21.90;33.20;;;;;;6105586;28;80701;-65
2021/01/08 02:53:14;;;;;;;12.98;7.25;;;22.00;33.60;;;;;;6097061;28;80417;-65
2021/01/08 02:56:15;;;;;;;15.30;7.55;;;21.90;33.30;;;;;;6105311;28;80952;-64
2021/01/08 02:59:15;;;;;;;12.95;7.35;;;21.90;33.30;;;;;;6097272;28;80756;-64
2021/01/08 03:02:16;;;;;;;13.05;7.25;;;21.90;33.40;;;;;;6097464;28;81045;-64
2021/01/08 03:05:16;;;;;;;13.35;6.75;;;21.90;33.30;;;;;;6104963;28;82212;-64
2021/01/08 03:08:17;;;;;;;13.48;6.85;;;21.90;33.20;;;;;;6095471;28;81210;-64
2021/01/08 03:11:17;;;;;;;14.05;7.55;;;21.90;33.30;;;;;;6101036;28;81373;-63
2021/01/08 03:14:18;;;;;;;14.40;7.20;;;21.90;33.20;;;;;;6101398;28;82454;-63
2021/01/08 03:17:18;;;;;;;11.57;6.60;;;21.90;33.20;;;;;;6070679;28;80854;-61
2021/01/08 03:20:19;;;;;;;15.18;7.00;;;21.90;33.40;;;;;;6093004;28;80649;-63
2021/01/08 03:23:19;;;;;;;14.52;7.05;;;21.90;33.20;;;;;;6104695;28;80431;-63
2021/01/08 03:26:20;;;;;;;13.60;6.82;;;21.90;33.10;;;;;;6072118;28;80537;-63
2021/01/08 03:29:20;;;;;;;11.98;7.07;;;21.90;33.00;;;;;;6088839;28;80288;-63
2021/01/08 03:32:21;;;;;;;12.40;6.78;;;21.90;32.80;;;;;;6099259;28;80943;-63
2021/01/08 03:35:22;;;;;;;11.95;6.97;;;21.90;33.00;;;;;;6103503;28;80789;-63
2021/01/08 03:38:22;;;;;;;12.82;6.80;;;21.90;32.80;;;;;;6094372;28;80861;-64
2021/01/08 03:41:23;;;;;;;13.43;7.05;;;21.90;32.80;;;;;;6101161;28;82298;-65
2021/01/08 03:44:23;;;;;;;12.95;7.25;;;21.90;33.10;;;;;;6095737;28;81192;-63
2021/01/08 03:47:24;;;;;;;13.02;6.75;;;21.90;32.80;;;;;;6106166;28;81093;-64
2021/01/08 03:50:24;;;;;;;11.73;6.70;;;21.90;32.70;;;;;;6099848;28;81447;-64
2021/01/08 03:53:25;;;;;;;11.05;5.97;;;21.90;32.80;;;;;;6104080;28;81334;-63
2021/01/08 03:56:25;;;;;;;11.48;6.65;;;21.90;33.00;;;;;;6096949;28;80854;-64
2021/01/08 03:59:26;;;;;;;12.45;5.97;;;21.90;32.90;;;;;;6102733;28;80584;-64
2021/01/08 04:02:27;;;;;;;11.60;6.50;;;21.90;33.20;;;;;;6104241;28;80731;-64
2021/01/08 04:05:27;;;;;;;12.27;6.25;;;21.90;33.30;;;;;;6104125;28;81763;-64
2021/01/08 04:08:28;;;;;;;15.43;7.22;;;21.90;33.30;;;;;;6104568;28;80809;-65
2021/01/08 04:11:28;;;;;;;12.18;6.60;;;21.90;33.40;;;;;;6096883;28;80835;-64
2021/01/08 04:14:29;;;;;;;10.63;5.93;;;21.90;32.90;;;;;;6106034;28;82351;-64
2021/01/08 04:17:29;;;;;;;11.00;6.32;;;21.90;33.40;;;;;;6096046;28;81005;-64
2021/01/08 04:20:30;;;;;;;11.95;6.13;;;22.00;33.10;;;;;;6098422;28;80693;-64
2021/01/08 04:23:30;;;;;;;11.38;6.82;;;22.10;34.10;;;;;;6084861;28;81020;-63
2021/01/08 04:26:31;;;;;;;10.13;6.03;;;22.10;33.20;;;;;;6085622;28;80728;-64
2021/01/08 04:29:31;;;;;;;11.05;6.38;;;22.10;32.80;;;;;;6105000;28;80770;-63
2021/01/08 04:32:32;;;;;;;12.10;6.85;;;22.10;32.50;;;;;;6097391;28;80525;-63
2021/01/08 04:35:32;;;;;;;10.10;5.82;;;22.20;32.30;;;;;;6103193;28;80901;-64
2021/01/08 04:38:33;;;;;;;9.50;6.10;;;22.20;32.00;;;;;;6103569;28;83607;-64
2021/01/08 04:41:33;;;;;;;11.40;5.78;;;22.30;32.00;;;;;;6103105;28;80667;-64
2021/01/08 04:44:34;;;;;;;10.82;5.88;;;22.30;31.80;;;;;;6104970;28;81321;-63
2021/01/08 04:47:35;;;;;;;10.23;5.78;;;22.30;31.80;;;;;;6103945;28;81554;-64
2021/01/08 04:50:35;;;;;;;12.32;6.63;;;22.30;31.80;;;;;;6074561;28;82002;-64
2021/01/08 04:53:36;;;;;;;10.57;6.20;;;22.40;31.90;;;;;;6104056;28;80308;-64
2021/01/08 04:56:37;;;;;;;12.13;6.65;;;22.40;31.80;;;;;;6102649;28;81535;-66
2021/01/08 04:59:37;;;;;;;12.00;7.15;;;22.40;31.70;;;;;;6104046;28;81413;-66
2021/01/08 05:02:38;;;;;;;12.07;6.38;;;22.40;31.80;;;;;;6099609;28;80110;-66
2021/01/08 05:05:39;;;;;;;11.38;6.78;;;22.50;31.70;;;;;;6102521;28;80735;-66
2021/01/08 05:08:39;;;;;;;10.38;5.70;;;22.50;31.80;;;;;;6101805;28;80203;-65
2021/01/08 05:11:40;;;;;;;10.45;6.50;;;22.50;31.70;;;;;;6089030;28;80950;-66
2021/01/08 05:14:40;;;;;;;11.45;6.30;;;22.50;31.40;;;;;;6118626;28;81043;-67
2021/01/08 05:17:41;;;;;;;12.27;6.03;;;22.50;31.40;;;;;;6097766;28;81102;-67
2021/01/08 05:20:41;;;;;;;8.63;5.60;;;22.50;31.50;;;;;;6102402;28;81117;-67
2021/01/08 05:23:42;;;;;;;11.32;6.25;;;22.50;31.40;;;;;;6105254;28;81515;-68
2021/01/08 05:26:42;;;;;;;9.02;5.80;;;22.50;31.40;;;;;;6103290;28;81309;-67
2021/01/08 05:29:43;;;;;;;10.52;6.10;;;22.50;31.40;;;;;;6095615;28;80763;-66
2021/01/08 05:32:43;;;;;;;13.18;6.15;;;22.60;31.50;;;;;;6095155;28;80574;-69
2021/01/08 05:35:44;;;;;;;9.20;5.38;;;22.60;31.90;;;;;;6103990;28;80598;-65
2021/01/08 05:38:44;;;;;;;11.60;6.97;;;22.60;32.40;;;;;;6102528;28;90184;-66
2021/01/08 05:41:45;;;;;;;12.30;5.93;;;22.60;33.20;;;;;;6103214;28;80667;-67
2021/01/08 05:44:45;;;;;;;9.65;5.47;;;22.50;34.00;;;;;;6100947;28;81014;-67
2021/01/08 05:47:46;;;;;;;9.27;6.10;;;22.50;34.80;;;;;;6103311;28;80767;-66
2021/01/08 05:50:46;;;;;;;10.52;6.00;;;22.40;35.20;;;;;;6098017;28;80631;-66
2021/01/08 05:53:51;;;;;;;10.75;5.85;;;22.40;35.80;;;;;;6077120;28;82126;-66
2021/01/08 05:56:52;;;;;;;9.27;5.57;;;22.40;36.10;;;;;;6079647;28;80890;-66
2021/01/08 05:59:52;;;;;;;13.05;6.45;;;22.40;36.50;;;;;;6070658;28;80868;-63
2021/01/08 06:03:11;;;;;;;12.07;6.38;;;22.40;37.20;;;;;;6073481;28;80109;-64
2021/01/08 06:06:12;;;;;;;11.48;6.47;;;22.40;37.60;;;;;;6072265;28;80717;-65
2021/01/08 06:09:12;;;;;;;11.52;6.72;;;22.50;38.50;;;;;;6078975;28;80694;-66
2021/01/08 06:12:13;;;;;;;10.95;6.47;;;22.50;39.40;;;;;;6067651;28;80543;-65
2021/01/08 06:15:13;;;;;;;13.38;7.20;;;22.50;39.90;;;;;;6078709;28;81518;-66
2021/01/08 06:18:17;;;;;;;10.82;6.82;;;22.60;40.10;;;;;;6079976;28;80623;-63
2021/01/08 06:21:17;;;;;;;13.45;7.30;;;22.60;40.20;;;;;;6082321;28;80635;-64
2021/01/08 06:24:18;;;;;;;11.25;6.35;;;22.60;40.40;;;;;;6083075;28;80460;-63
2021/01/08 06:27:18;;;;;;;12.85;7.45;;;22.60;40.40;;;;;;6081325;28;80480;-63
2021/01/08 06:30:19;;;;;;;14.48;6.70;;;22.60;40.60;;;;;;6076576;28;80789;-63
2021/01/08 06:33:19;;;;;;;10.20;6.72;;;22.60;40.60;;;;;;6068119;28;80800;-64
2021/01/08 06:36:20;;;;;;;12.88;6.97;;;22.60;40.60;;;;;;6069279;28;80390;-64
2021/01/08 06:39:21;;;;;;;12.10;7.13;;;22.60;40.60;;;;;;6067118;28;80428;-64
2021/01/08 06:42:21;;;;;;;12.70;7.68;;;22.60;40.60;;;;;;6057117;28;80998;-65
2021/01/08 06:45:22;;;;;;;13.48;7.18;;;22.60;40.40;;;;;;6070627;28;80983;-61
2021/01/08 06:48:22;;;;;;;10.43;7.45;;;22.60;40.60;;;;;;6079170;28;80920;-62
2021/01/08 06:51:23;;;;;;;13.00;7.47;;;22.60;40.60;;;;;;6081820;28;80863;-59
2021/01/08 06:54:23;;;;;;;13.43;8.27;;;22.60;40.30;;;;;;6103049;28;83365;-62
2021/01/08 06:57:24;;;;;;;13.63;7.80;;;22.60;40.10;;;;;;6101318;28;80538;-63
2021/01/08 07:00:24;;;;;;;15.45;7.32;;;22.50;40.10;;;;;;6104997;28;80856;-62
2021/01/08 07:03:25;;;;;;;13.85;8.23;;;22.50;40.10;;;;;;6098976;28;83526;-61
2021/01/08 07:06:28;;;;;;;10.73;6.63;;;22.50;40.10;;;;;;6102354;28;84940;-63
2021/01/08 07:09:29;;;;;;;11.65;7.25;;;22.50;40.00;;;;;;6103187;28;80819;-64
2021/01/08 07:12:32;;;;;;;12.55;7.32;;;22.40;40.10;;;;;;6104194;28;80617;-63
2021/01/08 07:15:32;;;;;;;11.50;7.50;;;22.40;40.20;;;;;;6102722;28;81339;-62
2021/01/08 07:18:33;;;;;;;13.27;6.68;;;22.40;40.10;;;;;;6100302;28;81866;-64
2021/01/08 07:21:34;;;;;;;13.05;7.07;;;22.30;40.20;;;;;;6105888;28;81305;-63
2021/01/08 07:24:34;;;;;;;23.70;9.07;;;22.30;40.10;;;;;;6096350;28;80781;-62
2021/01/08 07:27:35;;;;;;;15.35;7.13;;;22.40;40.30;;;;;;6100511;28;80497;-62
2021/01/08 07:30:35;;;;;;;14.27;6.85;;;22.40;40.10;;;;;;6100570;28;81537;-61
2021/01/08 07:33:36;;;;;;;11.85;6.97;;;22.40;40.20;;;;;;6093415;28;80325;-61
2021/01/08 07:36:36;;;;;;;34.00;7.72;;;22.40;40.00;;;;;;6099034;28;80955;-61
2021/01/08 07:39:38;;;;;;;12.68;7.05;;;22.40;39.90;;;;;;6101759;28;81768;-63
2021/01/08 07:42:38;;;;;;;12.02;6.68;;;22.40;39.80;;;;;;6102888;28;80501;-63
2021/01/08 07:45:39;;;;;;;13.32;6.88;;;22.40;39.60;;;;;;6102230;28;80886;-62
2021/01/08 07:48:39;;;;;;;11.98;7.15;;;22.40;39.80;;;;;;6098125;28;82341;-61
2021/01/08 07:51:40;;;;;;;13.37;6.87;;;22.40;39.60;;;;;;6057200;28;802731;-63
2021/01/08 07:54:40;;;;;;;11.65;6.40;;;22.40;39.80;;;;;;6098215;28;81129;-64
2021/01/08 07:57:41;;;;;;;15.60;6.85;;;22.40;39.70;;;;;;6095974;28;81057;-63
2021/01/08 08:00:41;;;;;;;10.90;5.82;;;22.40;39.80;;;;;;6101429;28;80363;-65
2021/01/08 08:03:42;;;;;;;12.00;6.57;;;22.40;40.10;;;;;;6093402;28;80743;-65
2021/01/08 08:06:42;;;;;;;10.55;6.95;;;22.40;40.00;;;;;;6099029;28;80663;-69
2021/01/08 08:09:43;;;;;;;11.32;6.40;;;22.40;40.10;;;;;;6093646;28;89768;-65
2021/01/08 08:12:43;;;;;;;14.63;7.30;;;22.40;40.20;;;;;;6103892;28;81303;-64
2021/01/08 08:15:44;;;;;;;10.98;6.15;;;22.50;40.40;;;;;;6102048;28;80284;-66
2021/01/08 08:18:47;;;;;;;13.18;6.63;;;22.50;40.50;;;;;;6084060;28;80732;-63
2021/01/08 08:21:56;;;;;;;11.65;6.70;;;22.40;40.00;;;;;;6104274;28;80968;-63
2021/01/08 08:25:00;;;;;;;10.13;6.68;;;22.40;39.40;;;;;;6096403;28;81257;-62
2021/01/08 08:28:00;;;;;;;10.82;6.85;;;22.40;39.10;;;;;;6099298;28;80539;-63
2021/01/08 08:31:01;;;;;;;11.88;6.03;;;22.40;39.00;;;;;;6100090;28;80749;-62
2021/01/08 08:34:02;;;;;;;10.32;6.43;;;22.40;39.50;;;;;;6097540;28;80512;-62
2021/01/08 08:37:02;;;;;;;13.98;6.55;;;22.50;39.00;;;;;;6097972;28;82801;-63
2021/01/08 08:40:03;;;;;;;12.65;7.00;;;22.50;38.80;;;;;;6103551;28;81521;-64
2021/01/08 08:43:03;;;;;;;10.73;6.65;;;22.50;38.60;;;;;;6099390;28;81058;-64
2021/01/08 08:46:04;;;;;;;12.88;6.43;;;22.50;38.60;;;;;;6098752;28;81026;-63
2021/01/08 08:49:04;;;;;;;11.98;6.50;;;22.60;38.70;;;;;;6096479;28;81705;-63
2021/01/08 08:52:05;;;;;;;11.90;6.40;;;22.50;38.10;;;;;;6100836;28;84466;-62
2021/01/08 08:55:08;;;;;;;13.73;6.63;;;22.60;38.60;;;;;;6101028;28;80781;-62
2021/01/08 08:58:17;;;;;;;9.77;6.38;;;22.60;38.40;;;;;;6096794;28;80664;-64
2021/01/08 09:01:18;;;;;;;10.45;6.68;;;22.70;38.50;;;;;;6092803;28;80801;-63
2021/01/08 09:04:19;;;;;;;11.05;6.53;;;22.70;37.70;;;;;;6099782;28;80284;-63
2021/01/08 09:07:19;;;;;;;11.85;6.32;;;22.70;37.20;;;;;;6097195;28;80989;-66
2021/01/08 09:10:20;;;;;;;13.98;7.05;;;22.70;37.00;;;;;;6094348;28;81836;-66
2021/01/08 09:13:21;;;;;;;9.38;6.45;;;22.60;36.30;;;;;;6097485;28;80834;-66
2021/01/08 09:16:21;;;;;;;10.10;6.43;;;22.60;35.90;;;;;;6095180;28;80226;-65
2021/01/08 09:19:22;;;;;;;9.48;6.30;;;22.60;35.90;;;;;;6098463;28;80915;-65
2021/01/08 09:22:22;;;;;;;11.70;7.00;;;22.70;36.40;;;;;;6101119;28;81005;-64
2021/01/08 09:25:23;;;;;;;11.73;7.22;;;22.80;36.80;;;;;;6092594;28;80548;-65
2021/01/08 09:28:24;;;;;;;11.02;6.20;;;22.80;38.00;;;;;;6095556;28;80852;-65
2021/01/08 09:31:24;;;;;;;13.73;6.22;;;22.80;36.90;;;;;;6097325;28;80869;-66
2021/01/08 09:34:25;;;;;;;10.25;5.85;;;22.90;36.20;;;;;;6101717;28;89015;-66
2021/01/08 09:37:25;;;;;;;11.20;5.93;;;22.90;35.70;;;;;;6099734;28;80532;-65
2021/01/08 09:40:28;;;;;;;12.35;6.15;;;22.90;35.00;;;;;;6101301;28;80734;-64
2021/01/08 09:43:29;;;;;;;9.48;6.13;;;22.90;35.00;;;;;;6101601;28;80553;-63
2021/01/08 09:46:33;;;;;;;7.63;5.22;;;22.90;34.50;;;;;;6093894;28;80358;-64
2021/01/08 09:49:44;;;;;;;8.57;5.15;;;22.90;34.20;;;;;;6089971;28;80554;-64
2021/01/08 09:52:50;;;;;;;;;;;23.00;34.10;;;;;;6101047;28;81003;-64
2021/01/08 09:55:53;;;;;;;11.07;4.85;;;22.90;33.80;;;;;;6100405;28;80242;-63
2021/01/08 09:58:54;;;;;;;9.15;5.55;;;23.00;33.30;;;;;;6102365;28;80138;-63
2021/01/08 10:01:57;;;;;;;9.38;4.70;;;23.00;33.60;;;;;;6100642;28;83563;-65
2021/01/08 10:05:01;;;;;;;9.88;4.82;;;23.00;33.00;;;;;;6100296;28;80782;-66
2021/01/08 10:08:02;;;;;;;10.48;4.63;;;23.00;33.30;;;;;;6090483;28;80518;-63
2021/01/08 10:11:26;;;;;;;9.65;4.55;;;23.00;33.70;;;;;;6096893;28;80782;-65
2021/01/08 10:14:25;;;;;;;7.07;4.72;;;23.10;34.40;;;;;;6100309;28;80824;-64
2021/01/08 10:17:26;;;;;;;9.13;4.55;;;23.10;35.00;;;;;;6094768;28;80103;-64
2021/01/08 10:20:26;;;;;;;9.23;5.18;;;23.10;34.60;;;;;;6102945;28;80817;-63
2021/01/08 10:23:27;;;;;;;8.52;5.28;;;23.00;34.40;;;;;;6101211;28;80579;-63
2021/01/08 10:26:27;;;;;;;9.40;4.97;;;23.00;34.80;;;;;;6100321;28;81061;-63
2021/01/08 10:29:28;;;;;;;10.32;5.03;;;23.10;34.60;;;;;;6089561;28;81966;-62
2021/01/08 10:32:28;;;;;;;8.10;4.53;;;23.00;34.50;;;;;;6091218;28;80815;-63
2021/01/08 10:35:29;;;;;;;8.93;4.68;;;23.00;34.50;;;;;;6097578;28;83418;-63
2021/01/08 10:38:29;;;;;;;9.15;5.03;;;23.00;34.70;;;;;;6101569;28;81128;-63
2021/01/08 10:41:30;;;;;;;9.13;4.63;;;23.00;34.40;;;;;;6094851;28;80881;-63
2021/01/08 10:44:31;;;;;;;8.68;4.70;;;23.00;34.10;;;;;;6091946;28;80699;-63
2021/01/08 10:47:31;;;;;;;8.85;4.47;;;22.90;34.10;;;;;;6095969;28;80467;-63
2021/01/08 10:50:32;;;;;;;7.13;4.50;;;22.90;33.80;;;;;;6081543;28;81205;-62
2021/01/08 10:53:33;;;;;;;8.95;4.68;;;22.90;33.70;;;;;;6093780;28;80439;-63
2021/01/08 10:56:35;;;;;;;7.70;4.35;;;22.90;33.50;;;;;;6092987;28;80384;-63
2021/01/08 10:59:35;;;;;;;12.18;4.63;;;22.80;33.20;;;;;;6109360;28;81564;-62
2021/01/08 11:02:36;;;;;;;8.45;4.55;;;22.80;33.10;;;;;;6080816;28;80657;-62
2021/01/08 11:05:36;;;;;;;12.10;5.50;;;22.80;32.90;;;;;;6096701;28;80864;-62
2021/01/08 11:08:37;;;;;;;8.40;5.18;;;22.80;33.20;;;;;;6105086;28;81063;-63
2021/01/08 11:11:37;;;;;;;7.32;4.90;;;22.80;33.40;;;;;;6104886;28;80520;-64
2021/01/08 11:14:38;;;;;;;8.32;4.75;;;22.80;33.60;;;;;;6103671;28;81008;-64
2021/01/08 11:17:38;;;;;;;9.10;4.60;;;22.80;33.90;;;;;;6093162;28;80465;-63
2021/01/08 11:20:39;;;;;;;7.68;4.95;;;22.80;33.70;;;;;;6085466;28;80561;-63
2021/01/08 11:23:39;;;;;;;7.47;4.82;;;22.70;33.90;;;;;;6096614;28;81066;-63
2021/01/08 11:26:40;;;;;;;10.90;4.85;;;22.80;33.60;;;;;;6097717;28;81071;-63
2021/01/08 11:29:41;;;;;;;14.82;6.13;;;22.80;33.30;;;;;;6096889;28;80856;-62
2021/01/08 11:32:41;;;;;;;31.88;8.38;;;22.70;32.70;;;;;;6085495;28;81351;-63
2021/01/08 11:35:42;;;;;;;36.45;10.43;;;22.80;33.10;;;;;;6095099;28;80548;-65
2021/01/08 11:38:42;;;;;;;38.75;12.10;;;22.80;33.70;;;;;;6102377;28;83332;-64
2021/01/08 11:41:43;;;;;;;43.15;11.93;;;22.40;33.60;;;;;;6100416;28;84297;-63
2021/01/08 11:44:43;;;;;;;35.22;10.63;;;22.90;34.30;;;;;;6093587;28;83477;-63
2021/01/08 11:47:44;;;;;;;38.67;10.88;;;22.90;33.90;;;;;;6094563;28;83008;-64
2021/01/08 11:50:44;;;;;;;31.20;10.55;;;22.90;33.70;;;;;;6098532;28;84657;-64
2021/01/08 11:53:45;;;;;;;26.08;9.38;;;22.90;34.20;;;;;;6094325;28;84001;-64
2021/01/08 11:56:45;;;;;;;23.83;9.60;;;23.00;33.50;;;;;;6097829;28;83096;-63
2021/01/08 11:59:46;;;;;;;24.98;9.30;;;23.00;33.20;;;;;;6091959;28;80914;-62
2021/01/08 12:02:46;;;;;;;21.70;8.27;;;23.00;33.10;;;;;;6093795;28;81664;-63
2021/01/08 12:05:47;;;;;;;17.40;7.57;;;22.90;32.80;;;;;;6104437;28;81665;-62
2021/01/08 12:08:47;;;;;;;16.38;6.68;;;22.90;32.90;;;;;;6096085;28;81065;-62
2021/01/08 12:11:48;;;;;;;19.58;6.68;;;22.90;32.90;;;;;;6105395;28;80539;-62
2021/01/08 12:14:49;;;;;;;13.50;5.97;;;22.90;33.00;;;;;;6091293;28;82269;-62
2021/01/08 12:17:49;;;;;;;14.95;6.80;;;22.90;32.60;;;;;;6104162;28;81071;-62
2021/01/08 12:20:50;;;;;;;20.83;7.60;;;22.90;32.50;;;;;;6092103;28;80409;-62
2021/01/08 12:23:50;;;;;;;15.63;5.45;;;22.90;32.80;;;;;;6102768;28;80719;-63
2021/01/08 12:26:51;;;;;;;13.68;5.78;;;22.80;32.20;;;;;;6094892;28;80348;-64
2021/01/08 12:29:51;;;;;;;14.18;6.35;;;22.80;32.00;;;;;;6090599;28;80872;-64
2021/01/08 12:32:52;;;;;;;17.35;6.15;;;22.90;32.20;;;;;;6097384;28;82030;-63
2021/01/08 12:35:53;;;;;;;11.40;5.55;;;22.90;32.30;;;;;;6103250;28;81147;-64
2021/01/08 12:38:53;;;;;;;12.68;5.80;;;23.00;32.00;;;;;;6101873;28;81237;-63
2021/01/08 12:41:54;;;;;;;15.70;5.15;;;23.00;31.00;;;;;;6104502;28;80706;-63
2021/01/08 12:44:54;;;;;;;11.80;4.72;;;23.00;30.80;;;;;;6094554;28;80415;-64
2021/01/08 12:47:55;;;;;;;11.35;5.63;;;23.00;31.50;;;;;;6095122;28;81003;-63
2021/01/08 12:50:55;;;;;;;9.80;5.18;;;23.00;30.90;;;;;;6095044;28;81069;-64
2021/01/08 12:53:56;;;;;;;10.32;4.53;;;23.00;31.20;;;;;;6105281;28;81366;-64
2021/01/08 12:56:56;;;;;;;11.02;5.28;;;22.90;31.00;;;;;;6098343;28;81673;-63
2021/01/08 12:59:57;;;;;;;7.72;4.38;;;22.90;31.00;;;;;;6090017;28;81573;-63
2021/01/08 13:02:58;;;;;;;9.48;4.30;;;22.90;30.80;;;;;;6098392;28;80711;-63
2021/01/08 13:05:58;;;;;;;11.38;5.05;;;22.90;31.50;;;;;;6094658;28;81517;-64
2021/01/08 13:08:59;;;;;;;11.27;4.60;;;22.90;31.60;;;;;;6096929;28;81012;-64
2021/01/08 13:11:59;;;;;;;9.73;4.53;;;22.90;31.30;;;;;;6090080;28;80152;-65
2021/01/08 13:15:00;;;;;;;10.77;4.97;;;22.90;31.50;;;;;;6094641;28;80687;-66
2021/01/08 13:18:00;;;;;;;13.93;4.97;;;22.80;31.20;;;;;;6101719;28;81068;-65
2021/01/08 13:21:01;;;;;;;8.23;4.10;;;22.80;31.10;;;;;;6101218;28;80424;-65
2021/01/08 13:24:02;;;;;;;8.13;4.43;;;22.80;30.80;;;;;;6099182;28;80949;-64
2021/01/08 13:27:03;;;;;;;9.57;4.53;;;22.80;31.40;;;;;;6099673;28;80952;-63
2021/01/08 13:30:03;;;;;;;8.38;4.63;;;22.90;31.10;;;;;;6094400;28;81784;-64
2021/01/08 13:33:04;;;;;;;9.52;4.88;;;22.90;30.60;;;;;;6091878;28;80793;-64
2021/01/08 13:36:04;;;;;;;9.43;4.10;;;23.00;30.40;;;;;;6101952;28;80983;-63
2021/01/08 13:39:05;;;;;;;9.38;5.05;;;23.00;30.10;;;;;;6101528;28;81879;-64
2021/01/08 13:42:06;;;;;;;5.95;3.95;;;23.00;30.00;;;;;;6096747;28;80808;-63
2021/01/08 13:45:06;;;;;;;7.07;3.97;;;23.00;29.80;;;;;;6103016;28;81488;-62
2021/01/08 13:48:07;;;;;;;8.73;4.25;;;23.00;29.80;;;;;;6089076;28;80809;-64
2021/01/08 13:51:07;;;;;;;6.85;4.07;;;23.00;29.90;;;;;;6090793;28;82880;-66
2021/01/08 13:54:08;;;;;;;7.75;4.13;;;23.10;29.90;;;;;;6099685;28;83102;-63
2021/01/08 13:57:10;;;;;;;7.50;4.38;;;23.10;29.90;;;;;;6101672;28;80809;-62
2021/01/08 14:00:10;;;;;;;8.75;3.97;;;23.10;29.90;;;;;;6102029;28;80862;-64
2021/01/08 14:03:12;;;;;;;9.02;4.15;;;23.10;29.80;;;;;;6090088;28;80811;-65
2021/01/08 14:06:13;;;;;;;9.25;4.72;;;23.10;30.00;;;;;;6097029;28;80441;-69
2021/01/08 14:09:14;;;;;;;8.75;4.25;;;23.10;30.30;;;;;;6098792;28;81539;-67
2021/01/08 14:12:14;;;;;;;11.23;4.68;;;23.10;30.20;;;;;;6105799;28;81326;-68
2021/01/08 14:15:15;;;;;;;11.35;4.70;;;23.10;30.00;;;;;;6090087;28;80691;-69
2021/01/08 14:18:16;;;;;;;8.48;4.78;;;23.10;30.00;;;;;;6092124;28;82359;-67
2021/01/08 14:21:16;;;;;;;7.00;3.75;;;23.10;30.50;;;;;;6100893;28;80804;-68
2021/01/08 14:24:17;;;;;;;9.77;4.82;;;23.10;30.70;;;;;;6097028;28;81427;-67
2021/01/08 14:27:18;;;;;;;8.60;4.70;;;23.10;30.60;;;;;;6096919;28;80790;-67
2021/01/08 14:30:18;;;;;;;9.40;4.18;;;23.10;30.50;;;;;;6097463;28;80874;-66
2021/01/08 14:33:19;;;;;;;10.50;4.85;;;23.00;30.80;;;;;;6092631;28;80460;-67
2021/01/08 14:36:19;;;;;;;9.98;4.53;;;23.00;30.40;;;;;;6099104;28;81115;-66
2021/01/08 14:39:20;;;;;;;9.45;4.13;;;23.00;30.70;;;;;;6089321;28;80975;-65
2021/01/08 14:42:20;;;;;;;11.13;4.18;;;22.90;31.20;;;;;;6103919;28;82094;-65
2021/01/08 14:45:21;;;;;;;6.47;4.20;;;23.00;31.60;;;;;;6101943;28;81948;-71
2021/01/08 14:48:22;;;;;;;11.88;4.47;;;23.00;31.50;;;;;;6100108;28;81278;-68
2021/01/08 14:51:23;;;;;;;12.85;4.50;;;23.00;31.70;;;;;;6095673;28;81501;-69
2021/01/08 14:54:23;;;;;;;8.95;4.20;;;23.00;31.70;;;;;;6075944;28;82486;-65
2021/01/08 14:57:24;;;;;;;9.30;5.55;;;23.00;31.70;;;;;;6102995;28;80358;-68
2021/01/08 15:00:24;;;;;;;10.30;6.13;;;23.00;32.10;;;;;;6101095;28;82429;-68
2021/01/08 15:03:25;;;;;;;13.77;7.85;;;23.00;31.90;;;;;;6100232;28;80604;-68
2021/01/08 15:06:26;;;;;;;14.38;8.27;;;23.00;32.10;;;;;;6101550;28;81058;-68
2021/01/08 15:09:26;;;;;;;12.63;8.07;;;23.00;32.80;;;;;;6104198;28;83341;-68
2021/01/08 15:12:26;;;;;;;11.57;7.25;;;23.00;32.90;;;;;;6104388;28;81698;-68
2021/01/08 15:15:27;;;;;;;12.90;7.88;;;23.10;32.50;;;;;;6095309;28;83572;-69
2021/01/08 15:18:28;;;;;;;14.48;6.88;;;23.00;32.50;;;;;;6104250;28;81226;-67
2021/01/08 15:21:29;;;;;;;13.18;7.47;;;23.00;32.40;;;;;;6098581;28;81307;-69
2021/01/08 15:24:29;;;;;;;12.77;7.78;;;23.00;32.30;;;;;;6100259;28;81708;-68
2021/01/08 15:27:30;;;;;;;12.10;6.88;;;23.10;32.20;;;;;;6100077;28;80703;-67
2021/01/08 15:30:30;;;;;;;12.77;6.88;;;23.00;32.30;;;;;;6094401;28;81513;-65